Time;durP1;ratioP1;P1;durP2;ratioP2;P2;SDS_P1;SDS_P2;PMS_P1;PMS_P2;Temp;Humidity;BMP_temperature;BMP_pressure;BME280_temperature;BME280_humidity;BME280_pressure;Samples;Min_cycle;Max_cycle;Signal;HPM_P1;HPM_P2
2022/02/22 00:00:30;;;;;;;7.60;2.90;;;6.00;99.90;;;;;;5030087;28;20186;-90
2022/02/22 00:02:55;;;;;;;5.43;2.40;;;6.00;99.90;;;;;;4991203;28;20224;-90
2022/02/22 00:05:21;;;;;;;7.33;2.70;;;6.00;99.90;;;;;;5020485;28;20193;-90
2022/02/22 00:07:47;;;;;;;6.40;2.60;;;5.90;99.90;;;;;;5007513;28;20208;-90
2022/02/22 00:10:15;;;;;;;7.40;2.40;;;5.90;99.90;;;;;;5007398;28;20197;-90
2022/02/22 00:12:42;;;;;;;7.50;2.77;;;6.00;99.90;;;;;;4991938;28;20189;-90
2022/02/22 00:15:09;;;;;;;6.57;2.60;;;6.00;99.90;;;;;;5024238;28;20197;-90
2022/02/22 00:17:38;;;;;;;8.07;2.93;;;6.00;99.90;;;;;;4990476;28;20190;-90
2022/02/22 00:20:06;;;;;;;5.67;2.50;;;6.10;99.90;;;;;;5007116;28;20283;-90
2022/02/22 00:22:34;;;;;;;5.60;2.20;;;6.20;99.90;;;;;;5030026;28;20217;-90
2022/02/22 00:24:59;;;;;;;6.47;2.60;;;6.20;99.40;;;;;;4997383;28;20181;-90
2022/02/22 00:27:25;;;;;;;7.37;2.67;;;6.30;99.00;;;;;;5025695;28;20201;-90
2022/02/22 00:29:51;;;;;;;4.67;2.70;;;6.30;99.00;;;;;;5006477;28;20206;-90
2022/02/22 00:32:17;;;;;;;6.73;2.60;;;6.20;99.50;;;;;;5024024;28;20181;-90
2022/02/22 00:34:43;;;;;;;6.83;3.07;;;6.20;99.90;;;;;;5007011;28;20252;-90
2022/02/22 00:37:09;;;;;;;7.90;3.00;;;6.20;99.90;;;;;;5006101;28;20196;-90
2022/02/22 00:39:34;;;;;;;8.10;3.27;;;6.10;99.90;;;;;;5030638;28;20209;-90
2022/02/22 00:42:00;;;;;;;7.50;2.77;;;6.00;99.90;;;;;;5025897;28;20236;-90
2022/02/22 00:44:27;;;;;;;10.00;3.20;;;6.10;99.90;;;;;;4992777;28;20734;-90
2022/02/22 00:46:53;;;;;;;5.10;2.40;;;6.20;99.50;;;;;;5006921;28;20181;-89
2022/02/22 00:49:18;;;;;;;7.63;2.97;;;6.20;99.50;;;;;;5019606;28;20221;-90
2022/02/22 00:51:44;;;;;;;5.73;2.37;;;6.30;99.90;;;;;;5006814;28;20197;-90
2022/02/22 00:54:10;;;;;;;7.97;3.40;;;6.20;99.90;;;;;;4992260;28;20193;-89
2022/02/22 00:56:36;;;;;;;4.70;2.50;;;6.00;99.90;;;;;;5025673;28;20181;-90
2022/02/22 00:59:01;;;;;;;11.87;2.80;;;5.90;99.90;;;;;;5026888;28;20203;-89
2022/02/22 01:01:27;;;;;;;5.73;2.87;;;6.00;99.90;;;;;;5016989;28;20224;-90
2022/02/22 01:03:53;;;;;;;5.37;2.50;;;6.00;99.90;;;;;;5037808;28;20249;-90
2022/02/22 01:06:19;;;;;;;5.10;2.63;;;6.10;99.90;;;;;;5025512;28;20737;-89
2022/02/22 01:08:44;;;;;;;6.70;2.80;;;6.10;99.90;;;;;;5007707;28;20205;-90
2022/02/22 01:11:10;;;;;;;4.67;2.87;;;6.20;99.90;;;;;;5024663;28;20212;-90
2022/02/22 01:13:36;;;;;;;8.83;2.70;;;6.20;99.90;;;;;;5008019;28;20209;-90
2022/02/22 01:16:02;;;;;;;7.80;2.53;;;6.20;99.90;;;;;;5025483;28;20201;-91
2022/02/22 01:18:28;;;;;;;7.00;2.60;;;6.20;99.90;;;;;;5025392;28;20632;-90
2022/02/22 01:20:54;;;;;;;6.87;2.40;;;6.10;99.90;;;;;;4996169;28;20196;-89
2022/02/22 01:23:20;;;;;;;7.20;3.43;;;6.20;99.90;;;;;;5024600;28;20224;-89
2022/02/22 01:25:46;;;;;;;7.73;3.10;;;6.10;99.90;;;;;;4987527;28;20731;-90
2022/02/22 01:28:11;;;;;;;5.43;3.03;;;6.00;99.90;;;;;;5024191;28;20272;-90
2022/02/22 01:30:37;;;;;;;8.03;2.43;;;6.00;99.90;;;;;;5025723;28;20699;-89
2022/02/22 01:33:03;;;;;;;7.60;2.70;;;5.90;99.90;;;;;;5024691;28;20205;-89
2022/02/22 01:35:29;;;;;;;8.37;2.67;;;5.80;99.90;;;;;;5007969;28;20294;-89
2022/02/22 01:37:54;;;;;;;5.77;2.77;;;5.90;99.90;;;;;;4996644;28;20190;-90
2022/02/22 01:40:21;;;;;;;6.93;2.83;;;5.90;99.90;;;;;;5026107;28;20186;-90
2022/02/22 01:42:46;;;;;;;7.33;2.90;;;6.00;99.00;;;;;;5008117;28;20209;-90
2022/02/22 01:45:12;;;;;;;5.10;2.50;;;5.90;99.70;;;;;;5008318;28;20197;-89
2022/02/22 01:47:38;;;;;;;8.03;2.80;;;5.80;99.60;;;;;;5010306;28;20178;-90
2022/02/22 01:50:06;;;;;;;6.13;2.37;;;5.80;99.90;;;;;;5024064;28;20272;-89
2022/02/22 01:52:32;;;;;;;5.87;2.50;;;5.80;99.70;;;;;;5024274;28;20182;-89
2022/02/22 01:54:58;;;;;;;6.57;2.23;;;5.90;99.40;;;;;;5013824;28;20213;-89
2022/02/22 01:57:25;;;;;;;8.23;2.90;;;5.90;99.10;;;;;;5024244;28;20189;-89
2022/02/22 01:59:52;;;;;;;9.30;2.50;;;5.80;99.90;;;;;;5006688;28;20205;-90
2022/02/22 02:02:17;;;;;;;5.43;2.67;;;5.70;99.90;;;;;;5024069;28;20205;-89
2022/02/22 02:04:43;;;;;;;9.37;3.03;;;5.80;99.40;;;;;;5024118;28;20186;-90
2022/02/22 02:07:09;;;;;;;6.47;2.57;;;5.80;99.20;;;;;;5025241;28;20193;-90
2022/02/22 02:09:35;;;;;;;5.90;2.20;;;5.80;99.20;;;;;;5008925;28;20272;-90
2022/02/22 02:12:00;;;;;;;6.93;2.43;;;5.80;99.80;;;;;;5009173;28;20200;-90
2022/02/22 02:14:27;;;;;;;7.43;2.37;;;5.70;99.80;;;;;;5025020;28;20197;-89
2022/02/22 02:16:54;;;;;;;5.63;2.53;;;5.60;99.90;;;;;;5028382;28;20186;-89
2022/02/22 02:19:20;;;;;;;6.90;2.53;;;5.70;99.90;;;;;;5028455;28;20213;-90
2022/02/22 02:21:47;;;;;;;5.53;2.50;;;5.50;99.90;;;;;;5007960;28;20213;-90
2022/02/22 02:24:16;;;;;;;6.53;2.40;;;5.50;99.90;;;;;;5027551;28;20193;-89
2022/02/22 02:26:43;;;;;;;4.77;2.20;;;5.40;99.90;;;;;;5027671;28;20173;-89
2022/02/22 02:29:14;;;;;;;6.73;2.50;;;5.50;99.90;;;;;;5009960;28;20632;-90
2022/02/22 02:31:42;;;;;;;7.27;2.90;;;5.40;99.90;;;;;;5027972;28;20185;-90
2022/02/22 02:34:09;;;;;;;8.17;2.77;;;5.30;99.90;;;;;;4976741;28;20194;-90
2022/02/22 02:36:37;;;;;;;7.23;2.33;;;5.50;99.90;;;;;;5011125;28;20197;-89
2022/02/22 02:39:04;;;;;;;8.60;2.23;;;5.40;99.90;;;;;;4984450;28;20278;-90
2022/02/22 02:41:30;;;;;;;8.70;2.63;;;5.40;99.90;;;;;;4995973;28;20221;-90
2022/02/22 02:44:04;;;;;;;4.37;2.43;;;5.40;99.90;;;;;;5027202;28;20354;-89
2022/02/22 02:46:30;;;;;;;4.23;2.50;;;5.30;99.90;;;;;;5012207;28;20184;-89
2022/02/22 02:48:56;;;;;;;5.17;2.43;;;5.30;99.90;;;;;;5026804;28;20627;-88
2022/02/22 02:51:22;;;;;;;6.00;2.30;;;5.30;99.90;;;;;;5027307;28;20203;-89
2022/02/22 02:53:49;;;;;;;7.40;2.63;;;5.30;99.90;;;;;;5025575;28;20280;-89
2022/02/22 02:56:15;;;;;;;5.63;2.60;;;5.30;99.90;;;;;;5025047;28;20208;-89
2022/02/22 02:58:41;;;;;;;4.87;2.10;;;5.20;99.90;;;;;;4991876;28;20213;-88
2022/02/22 03:01:07;;;;;;;8.10;2.47;;;5.20;99.90;;;;;;4992805;28;20186;-88
2022/02/22 03:03:32;;;;;;;3.80;2.23;;;5.20;99.90;;;;;;5004230;28;20213;-89
2022/02/22 03:05:58;;;;;;;2.83;2.23;;;5.10;99.90;;;;;;5009763;28;20236;-89
2022/02/22 03:08:24;;;;;;;5.17;2.63;;;5.00;99.90;;;;;;5003911;28;20222;-89
2022/02/22 03:10:50;;;;;;;5.60;2.23;;;5.00;99.90;;;;;;5010029;28;20623;-88
2022/02/22 03:13:16;;;;;;;3.10;2.30;;;4.90;99.90;;;;;;5029413;28;20194;-89
2022/02/22 03:15:41;;;;;;;8.83;3.10;;;4.90;99.90;;;;;;5017097;28;20198;-89
2022/02/22 03:18:08;;;;;;;4.37;2.70;;;5.00;99.90;;;;;;5006229;28;20218;-87
2022/02/22 03:20:35;;;;;;;4.67;2.40;;;5.00;99.90;;;;;;5019280;28;20190;-88
2022/02/22 03:23:01;;;;;;;6.07;2.60;;;5.10;99.90;;;;;;5025840;28;20371;-88
2022/02/22 03:25:28;;;;;;;3.60;2.40;;;5.10;99.90;;;;;;5033543;28;20204;-87
2022/02/22 03:27:54;;;;;;;5.83;2.50;;;5.00;99.90;;;;;;5029952;28;20189;-89
2022/02/22 03:30:20;;;;;;;6.23;2.37;;;5.10;99.90;;;;;;5006699;28;20197;-88
2022/02/22 03:32:46;;;;;;;5.50;2.90;;;5.10;99.90;;;;;;5025379;28;20193;-88
2022/02/22 03:35:13;;;;;;;5.40;2.33;;;5.10;99.90;;;;;;5025017;28;20212;-88
2022/02/22 03:37:38;;;;;;;4.40;2.50;;;5.10;99.90;;;;;;5008405;28;20285;-89
2022/02/22 03:40:05;;;;;;;4.73;2.70;;;5.20;99.90;;;;;;5026098;28;20216;-88
2022/02/22 03:42:31;;;;;;;5.23;2.47;;;5.20;99.90;;;;;;5010524;28;20263;-89
2022/02/22 03:44:56;;;;;;;4.03;2.57;;;5.20;99.90;;;;;;5027292;28;20573;-88
2022/02/22 03:47:22;;;;;;;5.60;2.23;;;5.30;99.90;;;;;;5025146;28;20681;-88
2022/02/22 03:49:48;;;;;;;7.37;2.57;;;5.30;99.90;;;;;;5026013;28;20276;-89
2022/02/22 03:52:13;;;;;;;4.17;2.10;;;5.30;99.90;;;;;;5011256;28;20286;-88
2022/02/22 03:54:39;;;;;;;5.90;2.57;;;5.30;99.90;;;;;;5026590;28;20247;-88
2022/02/22 03:57:05;;;;;;;6.70;2.53;;;5.30;99.90;;;;;;5008511;28;20193;-88
2022/02/22 03:59:31;;;;;;;5.60;2.50;;;5.40;99.90;;;;;;5010376;28;20217;-89
2022/02/22 04:01:56;;;;;;;7.10;1.97;;;5.40;99.90;;;;;;5018493;28;20359;-89
2022/02/22 04:04:22;;;;;;;6.13;2.47;;;5.30;99.90;;;;;;5022749;28;20192;-88
2022/02/22 04:06:48;;;;;;;4.70;2.47;;;5.40;99.90;;;;;;5008129;28;20202;-88
2022/02/22 04:09:13;;;;;;;4.53;2.27;;;5.40;99.90;;;;;;5010710;28;20229;-88
2022/02/22 04:11:39;;;;;;;5.57;2.63;;;5.40;99.90;;;;;;5009698;28;20205;-88
2022/02/22 04:14:05;;;;;;;5.83;2.50;;;5.30;99.90;;;;;;5017105;28;20210;-88
2022/02/22 04:16:31;;;;;;;6.37;2.67;;;5.40;99.90;;;;;;5021782;28;20567;-89
2022/02/22 04:18:57;;;;;;;5.10;2.57;;;5.20;99.90;;;;;;4998250;28;20212;-88
2022/02/22 04:21:22;;;;;;;4.87;2.70;;;5.10;99.90;;;;;;5016358;28;20262;-88
2022/02/22 04:23:48;;;;;;;4.97;2.77;;;5.20;99.90;;;;;;5022368;28;20241;-88
2022/02/22 04:26:14;;;;;;;6.20;2.67;;;5.10;99.90;;;;;;5024434;28;20200;-88
2022/02/22 04:28:40;;;;;;;5.53;2.50;;;5.00;99.90;;;;;;4995987;28;20621;-88
2022/02/22 04:31:05;;;;;;;6.27;2.60;;;4.90;99.90;;;;;;5044240;28;20197;-88
2022/02/22 04:33:31;;;;;;;7.70;2.93;;;5.00;99.90;;;;;;5038051;28;20192;-88
2022/02/22 04:35:57;;;;;;;6.10;2.50;;;4.90;99.90;;;;;;5038070;28;20178;-88
2022/02/22 04:38:23;;;;;;;5.63;2.90;;;4.90;99.90;;;;;;5004685;28;20226;-88
2022/02/22 04:40:49;;;;;;;7.27;3.07;;;5.00;99.90;;;;;;5003626;28;20189;-88
2022/02/22 04:43:14;;;;;;;6.33;2.50;;;5.00;99.90;;;;;;5010099;28;20228;-88
2022/02/22 04:45:40;;;;;;;6.83;2.37;;;4.90;99.90;;;;;;5020502;28;20194;-88
2022/02/22 04:48:06;;;;;;;6.10;3.00;;;5.00;99.90;;;;;;5028719;28;20194;-88
2022/02/22 04:50:32;;;;;;;5.90;2.80;;;4.90;99.90;;;;;;5024787;28;20185;-87
2022/02/22 04:52:58;;;;;;;4.40;2.60;;;4.90;99.90;;;;;;5030217;28;20194;-87
2022/02/22 04:55:23;;;;;;;8.30;2.83;;;4.90;99.90;;;;;;5032395;28;20197;-88
2022/02/22 04:57:49;;;;;;;7.27;2.80;;;4.90;99.90;;;;;;5008900;28;20206;-88
2022/02/22 05:00:16;;;;;;;7.87;3.30;;;4.90;99.90;;;;;;5022819;28;20681;-88
2022/02/22 05:02:42;;;;;;;5.97;2.77;;;4.90;99.90;;;;;;5022738;28;20217;-88
2022/02/22 05:05:08;;;;;;;5.13;2.80;;;5.00;99.90;;;;;;5024309;28;20280;-90
2022/02/22 05:07:34;;;;;;;8.60;2.60;;;5.00;99.90;;;;;;5025364;28;20205;-90
2022/02/22 05:10:00;;;;;;;9.50;2.90;;;5.10;99.90;;;;;;5025544;28;20202;-90
2022/02/22 05:12:26;;;;;;;6.93;3.50;;;5.00;99.90;;;;;;5025650;28;20629;-90
2022/02/22 05:14:52;;;;;;;6.20;3.17;;;5.20;99.90;;;;;;4991985;28;20209;-90
2022/02/22 05:17:17;;;;;;;5.97;2.93;;;5.10;99.90;;;;;;4992066;28;20652;-90
2022/02/22 05:19:43;;;;;;;8.67;3.50;;;5.20;99.90;;;;;;5025058;28;20216;-90
2022/02/22 05:22:09;;;;;;;7.73;3.60;;;5.20;99.90;;;;;;5025509;28;20217;-90
2022/02/22 05:24:35;;;;;;;5.23;2.80;;;5.10;99.90;;;;;;5008069;28;20234;-90
2022/02/22 05:27:00;;;;;;;7.07;3.50;;;5.10;99.90;;;;;;5008044;28;20641;-90
2022/02/22 05:29:26;;;;;;;4.80;3.00;;;5.30;99.90;;;;;;5026289;28;20194;-90
2022/02/22 05:31:53;;;;;;;5.87;2.70;;;5.20;99.90;;;;;;5026294;28;20182;-90
2022/02/22 05:34:19;;;;;;;7.33;3.27;;;5.20;99.90;;;;;;4998050;28;20195;-90
2022/02/22 05:36:45;;;;;;;8.47;3.30;;;5.20;99.90;;;;;;5028292;28;20189;-90
2022/02/22 05:39:10;;;;;;;9.17;3.53;;;5.20;99.90;;;;;;5033053;28;20209;-91
2022/02/22 05:41:36;;;;;;;6.53;3.03;;;5.20;99.90;;;;;;5034967;28;20257;-90
2022/02/22 05:44:02;;;;;;;9.47;3.43;;;5.10;99.90;;;;;;5032135;28;20301;-90
2022/02/22 05:46:28;;;;;;;6.10;3.13;;;5.10;99.90;;;;;;5028297;28;20189;-89
2022/02/22 05:48:54;;;;;;;8.17;3.57;;;5.00;99.90;;;;;;5034748;28;20462;-90
2022/02/22 05:51:19;;;;;;;10.37;3.93;;;4.90;99.90;;;;;;5007324;28;20198;-90
2022/02/22 05:53:45;;;;;;;8.73;3.23;;;4.80;99.90;;;;;;5008652;28;20200;-89
2022/02/22 05:56:11;;;;;;;11.47;3.97;;;4.70;99.90;;;;;;5024722;28;20181;-89
2022/02/22 05:58:37;;;;;;;7.13;3.27;;;4.70;99.90;;;;;;5022989;28;20208;-89
2022/02/22 06:01:03;;;;;;;7.00;3.50;;;4.70;99.90;;;;;;5037830;28;20201;-92
2022/02/22 06:03:29;;;;;;;10.00;3.67;;;4.60;99.90;;;;;;4996352;28;20209;-90
2022/02/22 06:05:54;;;;;;;10.50;4.80;;;4.60;99.90;;;;;;5033439;28;20205;-89
2022/02/22 06:08:20;;;;;;;12.53;4.30;;;4.70;99.90;;;;;;5034476;28;20205;-89
2022/02/22 06:10:48;;;;;;;11.97;4.70;;;4.60;99.90;;;;;;5006103;28;20232;-89
2022/02/22 06:13:15;;;;;;;6.17;3.20;;;4.70;99.90;;;;;;4992120;28;20249;-89
2022/02/22 06:15:41;;;;;;;12.27;3.73;;;4.80;99.90;;;;;;5024661;28;20213;-92
2022/02/22 06:18:06;;;;;;;9.27;3.63;;;4.80;99.90;;;;;;5024536;28;20610;-89
2022/02/22 06:20:34;;;;;;;4.80;3.23;;;4.80;99.90;;;;;;5025010;28;20251;-89
2022/02/22 06:22:59;;;;;;;11.43;3.57;;;4.90;99.90;;;;;;5024627;28;20222;-89
2022/02/22 06:25:26;;;;;;;8.47;3.80;;;4.80;99.90;;;;;;5025429;28;20544;-89
2022/02/22 06:27:54;;;;;;;10.53;4.33;;;4.80;99.90;;;;;;5030352;28;20236;-89
2022/02/22 06:30:22;;;;;;;9.23;3.73;;;4.70;99.90;;;;;;5009873;28;20181;-89
2022/02/22 06:32:49;;;;;;;6.80;3.43;;;4.70;99.90;;;;;;5023970;28;20193;-89
2022/02/22 06:35:16;;;;;;;5.93;3.23;;;4.70;99.90;;;;;;5013651;28;20193;-90
2022/02/22 06:37:42;;;;;;;8.60;3.33;;;4.70;99.90;;;;;;5007304;28;20249;-89
2022/02/22 06:40:08;;;;;;;6.73;3.97;;;4.70;99.90;;;;;;5005570;28;20217;-89
2022/02/22 06:42:36;;;;;;;10.43;4.30;;;4.50;99.90;;;;;;5026160;28;20217;-90
2022/02/22 06:45:03;;;;;;;10.60;3.70;;;4.50;99.90;;;;;;5008676;28;20204;-89
2022/02/22 06:47:29;;;;;;;11.30;4.40;;;4.50;99.90;;;;;;5024368;28;20185;-90
2022/02/22 06:49:55;;;;;;;10.67;3.87;;;4.50;99.90;;;;;;5006155;28;20209;-89
2022/02/22 06:52:22;;;;;;;10.43;4.23;;;4.50;99.90;;;;;;5022461;28;20193;-89
2022/02/22 06:54:48;;;;;;;7.57;3.80;;;4.60;99.90;;;;;;5023783;28;20201;-90
2022/02/22 06:57:14;;;;;;;12.40;4.00;;;4.60;99.90;;;;;;5010589;28;20248;-89
2022/02/22 06:59:40;;;;;;;10.60;4.13;;;4.80;99.90;;;;;;5008370;28;20220;-90
2022/02/22 07:02:06;;;;;;;13.37;3.77;;;4.80;99.90;;;;;;5019621;28;20276;-89
2022/02/22 07:04:32;;;;;;;7.93;4.17;;;4.70;99.90;;;;;;4996248;28;20685;-90
2022/02/22 07:06:59;;;;;;;9.87;3.80;;;4.70;99.90;;;;;;5024572;28;20201;-90
2022/02/22 07:09:25;;;;;;;6.20;3.23;;;4.80;99.90;;;;;;5020021;28;20197;-89
2022/02/22 07:11:51;;;;;;;9.83;3.30;;;4.90;99.90;;;;;;5029451;28;20216;-89
2022/02/22 07:14:17;;;;;;;8.10;4.10;;;4.90;99.90;;;;;;4995757;28;20190;-90
2022/02/22 07:16:42;;;;;;;12.87;3.53;;;4.90;99.90;;;;;;5027447;28;20189;-89
2022/02/22 07:19:08;;;;;;;10.43;3.37;;;4.90;99.90;;;;;;5009467;28;20225;-90
2022/02/22 07:21:34;;;;;;;8.47;3.67;;;4.90;99.90;;;;;;5004569;28;20229;-90
2022/02/22 07:23:59;;;;;;;12.87;4.30;;;4.90;99.90;;;;;;4988383;28;20194;-90
2022/02/22 07:26:25;;;;;;;10.47;4.40;;;4.90;99.90;;;;;;5006007;28;20217;-90
2022/02/22 07:28:51;;;;;;;11.47;3.47;;;4.90;99.90;;;;;;5002645;28;20833;-90
2022/02/22 07:31:16;;;;;;;10.83;3.57;;;5.00;99.90;;;;;;5003136;28;20182;-91
2022/02/22 07:33:42;;;;;;;8.87;3.30;;;5.10;99.90;;;;;;5018983;28;20197;-90
2022/02/22 07:36:08;;;;;;;8.47;3.40;;;5.10;99.90;;;;;;5032550;28;20186;-90
2022/02/22 07:38:34;;;;;;;10.70;3.47;;;5.30;99.90;;;;;;5020054;28;20206;-90
2022/02/22 07:41:00;;;;;;;8.57;3.33;;;5.40;99.90;;;;;;5019605;28;20616;-90
2022/02/22 07:43:26;;;;;;;8.63;3.87;;;5.40;99.90;;;;;;5014748;28;20244;-90
2022/02/22 07:45:52;;;;;;;10.20;3.90;;;5.50;99.90;;;;;;5010954;28;20220;-90
2022/02/22 07:48:17;;;;;;;9.03;3.67;;;5.60;99.90;;;;;;5018279;28;20212;-90
2022/02/22 07:50:43;;;;;;;9.00;3.90;;;5.60;99.90;;;;;;5000718;28;20201;-90
2022/02/22 07:53:09;;;;;;;10.80;3.80;;;5.60;99.90;;;;;;4985065;28;20281;-90
2022/02/22 07:55:34;;;;;;;9.77;3.53;;;5.70;99.90;;;;;;5016471;28;20201;-90
2022/02/22 07:58:00;;;;;;;10.33;4.03;;;5.60;99.90;;;;;;5017824;28;20201;-90
2022/02/22 08:00:26;;;;;;;8.83;3.30;;;5.60;99.90;;;;;;5003165;28;20679;-90
2022/02/22 08:02:54;;;;;;;8.50;3.63;;;5.50;99.90;;;;;;5020982;28;20287;-90
2022/02/22 08:05:22;;;;;;;12.67;3.50;;;5.50;99.90;;;;;;5021297;28;20189;-90
2022/02/22 08:07:48;;;;;;;10.97;3.93;;;5.60;99.90;;;;;;5027363;28;20248;-91
2022/02/22 08:10:14;;;;;;;8.53;3.77;;;5.60;99.90;;;;;;5032100;28;20190;-90
2022/02/22 08:12:40;;;;;;;12.17;3.93;;;5.80;99.90;;;;;;4999889;28;20246;-90
2022/02/22 08:15:06;;;;;;;10.33;3.60;;;5.70;99.90;;;;;;5009958;28;20208;-90
2022/02/22 08:17:32;;;;;;;11.37;3.60;;;5.80;99.90;;;;;;5000876;28;20283;-90
2022/02/22 08:19:58;;;;;;;9.97;3.17;;;5.90;99.90;;;;;;5016605;28;20233;-90
2022/02/22 08:22:24;;;;;;;8.37;3.70;;;5.90;99.90;;;;;;5000017;28;20327;-90
2022/02/22 08:24:49;;;;;;;9.37;3.63;;;5.90;99.90;;;;;;5017545;28;20239;-90
2022/02/22 08:27:15;;;;;;;11.47;3.67;;;6.00;99.90;;;;;;4996357;28;20197;-90
2022/02/22 08:29:41;;;;;;;10.40;3.87;;;6.10;99.90;;;;;;5018978;28;20189;-90
2022/02/22 08:32:07;;;;;;;8.93;3.50;;;6.20;99.90;;;;;;5025346;28;20213;-92
2022/02/22 08:34:33;;;;;;;12.33;4.13;;;6.20;99.90;;;;;;5011656;28;20185;-90
2022/02/22 08:36:58;;;;;;;13.33;3.77;;;6.10;99.90;;;;;;5019153;28;20178;-90
2022/02/22 08:39:25;;;;;;;12.07;4.33;;;6.20;99.90;;;;;;5019917;28;20267;-90
2022/02/22 08:41:51;;;;;;;10.23;3.43;;;6.00;99.90;;;;;;5018167;28;20201;-90
2022/02/22 08:44:18;;;;;;;12.07;3.73;;;6.20;99.90;;;;;;5019874;28;20216;-90
2022/02/22 08:46:44;;;;;;;8.63;3.40;;;6.10;99.90;;;;;;5019461;28;20236;-90
2022/02/22 08:49:10;;;;;;;9.17;3.53;;;6.20;99.90;;;;;;5002824;28;20213;-90
2022/02/22 08:51:36;;;;;;;7.40;3.47;;;6.20;99.90;;;;;;5020559;28;20182;-90
2022/02/22 08:54:04;;;;;;;10.23;3.57;;;6.30;99.90;;;;;;5002888;28;20178;-90
2022/02/22 08:56:30;;;;;;;16.20;4.40;;;6.30;99.90;;;;;;5023259;28;20551;-90
2022/02/22 08:58:56;;;;;;;13.13;3.73;;;6.30;99.90;;;;;;5018609;28;20216;-90
2022/02/22 09:01:23;;;;;;;14.23;5.40;;;6.30;99.90;;;;;;5020164;28;20260;-90
2022/02/22 09:03:49;;;;;;;12.73;3.90;;;6.30;99.90;;;;;;4986816;28;20190;-90
2022/02/22 09:06:15;;;;;;;8.30;4.20;;;6.40;99.90;;;;;;5020721;28;20196;-91
2022/02/22 09:08:40;;;;;;;9.67;3.90;;;6.30;99.90;;;;;;5003205;28;20202;-91
2022/02/22 09:11:06;;;;;;;14.33;4.87;;;6.40;99.90;;;;;;5022078;28;20182;-91
2022/02/22 09:13:32;;;;;;;8.77;4.13;;;6.50;99.90;;;;;;5006711;28;20185;-92
2022/02/22 09:15:58;;;;;;;11.57;4.53;;;6.60;99.90;;;;;;5021478;28;20225;-90
2022/02/22 09:18:23;;;;;;;14.30;4.53;;;6.70;99.90;;;;;;5003671;28;20578;-90
2022/02/22 09:20:49;;;;;;;18.20;5.27;;;6.80;99.90;;;;;;4994243;28;20194;-90
2022/02/22 09:23:15;;;;;;;14.03;5.00;;;6.80;99.90;;;;;;5006427;28;20608;-91
2022/02/22 09:25:40;;;;;;;13.80;4.80;;;6.80;99.90;;;;;;5037324;28;20189;-91
2022/02/22 09:28:08;;;;;;;11.27;4.70;;;6.80;99.90;;;;;;5029232;28;20212;-91
2022/02/22 09:30:35;;;;;;;13.70;4.23;;;6.70;99.90;;;;;;5011834;28;20203;-91
2022/02/22 09:33:02;;;;;;;12.63;4.63;;;6.80;99.90;;;;;;5037670;28;20186;-92
2022/02/22 09:35:28;;;;;;;12.07;4.60;;;6.90;99.90;;;;;;5035686;28;20190;-90
2022/02/22 09:37:55;;;;;;;13.37;4.47;;;7.00;99.90;;;;;;5019476;28;20267;-91
2022/02/22 09:40:22;;;;;;;13.07;4.97;;;7.10;99.90;;;;;;5015403;28;20232;-91
2022/02/22 09:42:48;;;;;;;11.93;4.87;;;7.30;99.90;;;;;;5014254;28;20728;-91
2022/02/22 09:45:14;;;;;;;10.47;5.00;;;7.30;99.90;;;;;;5013898;28;20280;-91
2022/02/22 09:47:42;;;;;;;10.23;4.43;;;7.40;99.90;;;;;;5020866;28;20193;-90
2022/02/22 09:50:08;;;;;;;13.67;4.80;;;7.70;98.50;;;;;;5020345;28;20181;-91
2022/02/22 09:52:34;;;;;;;14.77;5.10;;;7.70;99.10;;;;;;5021251;28;20611;-91
2022/02/22 09:55:00;;;;;;;12.57;4.87;;;7.60;98.80;;;;;;4987594;28;20363;-91
2022/02/22 09:57:26;;;;;;;13.80;4.87;;;7.70;98.50;;;;;;5025173;28;20268;-90
2022/02/22 09:59:52;;;;;;;9.17;4.30;;;7.70;98.60;;;;;;5029443;28;20205;-89
2022/02/22 10:02:17;;;;;;;18.17;4.83;;;7.70;97.90;;;;;;4994025;28;20240;-91
2022/02/22 10:04:48;;;;;;;15.37;5.60;;;7.70;98.20;;;;;;5021225;28;20185;-91
2022/02/22 10:07:15;;;;;;;10.23;4.60;;;7.60;99.20;;;;;;5007634;28;20201;-91
2022/02/22 10:09:59;;;;;;;9.93;4.17;;;7.50;99.20;;;;;;5009052;28;20209;-91
2022/02/22 10:12:30;;;;;;;11.77;5.00;;;7.60;96.50;;;;;;5022737;28;20212;-91
2022/02/22 10:14:58;;;;;;;16.87;5.60;;;7.70;97.80;;;;;;5039864;28;20562;-91
2022/02/22 10:17:24;;;;;;;15.53;4.90;;;7.60;98.10;;;;;;5026243;28;20194;-91
2022/02/22 10:19:58;;;;;;;16.33;4.90;;;7.80;97.90;;;;;;4991631;28;20243;-91
2022/02/22 10:22:25;;;;;;;11.07;4.80;;;7.70;96.50;;;;;;5004443;28;20217;-90
2022/02/22 10:25:02;;;;;;;12.20;4.97;;;7.70;95.90;;;;;;4972075;28;20198;-91
2022/02/22 10:27:28;;;;;;;13.43;4.90;;;7.60;98.20;;;;;;5022734;28;20212;-91
2022/02/22 10:29:55;;;;;;;13.23;4.80;;;7.70;98.60;;;;;;5031420;28;20201;-91
2022/02/22 10:32:24;;;;;;;9.83;4.93;;;7.80;97.80;;;;;;5015471;28;20192;-91
2022/02/22 10:34:51;;;;;;;13.20;4.80;;;7.70;97.20;;;;;;5019913;28;20186;-90
2022/02/22 10:37:17;;;;;;;14.90;5.67;;;7.70;98.10;;;;;;4987418;28;20195;-91
2022/02/22 10:39:43;;;;;;;18.47;5.67;;;7.70;97.80;;;;;;5019364;28;20688;-91
2022/02/22 10:42:08;;;;;;;14.57;4.87;;;7.60;97.90;;;;;;4982153;28;20210;-91
2022/02/22 10:44:39;;;;;;;11.97;4.97;;;7.70;97.10;;;;;;5003530;28;20676;-90
2022/02/22 10:47:20;;;;;;;14.30;5.33;;;7.80;98.10;;;;;;5019464;28;20560;-91
2022/02/22 10:49:48;;;;;;;19.43;5.33;;;7.90;98.10;;;;;;5027751;28;20217;-91
2022/02/22 10:52:14;;;;;;;11.27;4.77;;;7.90;98.70;;;;;;5022378;28;20186;-91
2022/02/22 10:54:41;;;;;;;9.97;4.33;;;8.00;97.80;;;;;;5023615;28;20197;-91
2022/02/22 10:57:07;;;;;;;14.23;5.07;;;8.00;97.60;;;;;;5022537;28;20305;-91
2022/02/22 10:59:34;;;;;;;13.13;4.13;;;8.00;97.20;;;;;;5003872;28;20233;-89
2022/02/22 11:02:00;;;;;;;14.20;4.50;;;8.00;95.10;;;;;;5021131;28;20228;-91
2022/02/22 11:04:26;;;;;;;16.80;5.30;;;8.00;95.00;;;;;;5016980;28;20224;-91
2022/02/22 11:06:52;;;;;;;10.27;4.23;;;8.00;94.40;;;;;;5017328;28;20336;-91
2022/02/22 11:09:21;;;;;;;12.80;5.13;;;8.00;95.30;;;;;;5018242;28;20202;-91
2022/02/22 11:12:00;;;;;;;19.13;5.10;;;8.00;95.80;;;;;;5020531;28;20559;-91
2022/02/22 11:14:30;;;;;;;11.20;4.13;;;8.00;94.20;;;;;;5005552;28;20438;-90
2022/02/22 11:16:58;;;;;;;13.43;4.97;;;8.00;93.60;;;;;;5019025;28;20220;-91
2022/02/22 11:19:35;;;;;;;13.13;4.33;;;7.80;95.40;;;;;;5021174;28;20210;-91
2022/02/22 11:22:17;;;;;;;10.57;4.53;;;7.80;95.00;;;;;;5005723;28;20228;-91
2022/02/22 11:25:03;;;;;;;13.00;3.97;;;8.00;93.60;;;;;;5002409;28;20194;-90
2022/02/22 11:27:40;;;;;;;14.73;4.70;;;8.10;93.10;;;;;;5003327;28;20585;-91
2022/02/22 11:30:09;;;;;;;13.83;5.03;;;8.20;94.00;;;;;;5022974;28;20256;-91
2022/02/22 11:32:37;;;;;;;12.20;5.00;;;8.20;94.40;;;;;;5023580;28;20174;-91
2022/02/22 11:35:13;;;;;;;15.77;5.73;;;8.30;92.40;;;;;;4989026;28;20205;-91
2022/02/22 11:37:39;;;;;;;14.67;5.27;;;8.40;91.10;;;;;;5025477;28;20660;-90
2022/02/22 11:40:06;;;;;;;21.80;5.50;;;8.40;92.90;;;;;;5025417;28;20239;-91
2022/02/22 11:42:32;;;;;;;16.60;5.80;;;8.40;92.30;;;;;;5022066;28;20272;-90
2022/02/22 11:45:10;;;;;;;12.27;5.40;;;8.30;92.70;;;;;;5020658;28;20194;-90
2022/02/22 11:47:38;;;;;;;16.93;5.77;;;8.30;92.90;;;;;;5011044;28;20189;-90
2022/02/22 11:50:16;;;;;;;14.20;5.47;;;8.30;92.60;;;;;;5024396;28;20277;-89
2022/02/22 11:52:50;;;;;;;13.17;5.33;;;8.50;91.40;;;;;;5027245;28;20165;-90
2022/02/22 11:55:19;;;;;;;21.03;5.50;;;8.60;93.40;;;;;;4995621;28;20181;-90
2022/02/22 11:57:46;;;;;;;9.63;5.30;;;8.80;92.20;;;;;;5021901;28;20343;-92
2022/02/22 12:00:14;;;;;;;11.80;5.00;;;9.10;91.50;;;;;;5022953;28;20193;-92
2022/02/22 12:02:44;;;;;;;17.80;5.90;;;9.20;88.90;;;;;;4990280;28;20224;-90
2022/02/22 12:05:28;;;;;;;13.67;4.80;;;9.50;88.20;;;;;;5025149;28;20166;-91
2022/02/22 12:08:02;;;;;;;15.30;5.20;;;9.60;85.70;;;;;;5023779;28;20166;-90
2022/02/22 12:10:30;;;;;;;14.20;5.07;;;9.40;87.80;;;;;;5028045;28;20169;-91
2022/02/22 12:13:05;;;;;;;11.03;4.87;;;9.40;85.30;;;;;;5027146;28;20187;-92
2022/02/22 12:15:32;;;;;;;11.40;4.13;;;9.50;85.90;;;;;;5020043;28;20212;-91
2022/02/22 12:17:58;;;;;;;12.83;4.70;;;9.40;86.80;;;;;;5002684;28;20186;-92
2022/02/22 12:20:28;;;;;;;13.07;4.83;;;9.30;88.10;;;;;;5019929;28;20707;-91
2022/02/22 12:22:57;;;;;;;13.00;4.90;;;9.30;86.60;;;;;;5023454;28;20689;-92
2022/02/22 12:25:27;;;;;;;11.80;4.63;;;9.20;86.50;;;;;;5023850;28;20174;-92
2022/02/22 12:28:03;;;;;;;18.17;6.40;;;9.10;88.80;;;;;;5024465;28;20611;-93
2022/02/22 12:30:35;;;;;;;13.17;4.30;;;9.10;88.20;;;;;;5022975;28;20181;-92
2022/02/22 12:33:01;;;;;;;10.60;4.70;;;8.90;90.60;;;;;;5022835;28;20213;-92
2022/02/22 12:35:35;;;;;;;14.73;5.23;;;9.00;91.30;;;;;;5023529;28;20239;-92
2022/02/22 12:38:13;;;;;;;14.47;4.67;;;9.20;87.60;;;;;;5023566;28;20200;-93
2022/02/22 12:40:40;;;;;;;15.20;4.70;;;9.20;89.30;;;;;;5025452;28;20169;-92
2022/02/22 12:43:08;;;;;;;12.13;4.37;;;9.20;88.20;;;;;;5022765;28;20641;-92
2022/02/22 12:45:43;;;;;;;13.33;4.90;;;9.20;87.90;;;;;;5021866;28;20193;-92
2022/02/22 12:48:10;;;;;;;8.40;4.90;;;9.20;88.20;;;;;;5024560;28;20253;-91
2022/02/22 12:50:37;;;;;;;11.33;5.00;;;9.20;87.50;;;;;;5021671;28;20246;-93